Time;durP1;ratioP1;P1;durP2;ratioP2;P2;SDS_P1;SDS_P2;PMS_P1;PMS_P2;Temp;Humidity;BMP_temperature;BMP_pressure;BME280_temperature;BME280_humidity;BME280_pressure;Samples;Min_cycle;Max_cycle;Signal;HPM_P1;HPM_P2
2022/10/25 00:04:35;;;;;;;20.90;13.00;;;;;;;12.68;100.00;98579.47;214605;1309;22475;-76
2022/10/25 00:09:37;;;;;;;18.10;11.70;;;;;;;12.67;100.00;98584.16;214639;1294;22481;-76
2022/10/25 00:14:39;;;;;;;19.20;12.00;;;;;;;12.65;100.00;98587.55;214721;1309;22410;-76
2022/10/25 00:19:40;;;;;;;19.70;11.90;;;;;;;12.63;100.00;98590.31;214636;1309;25475;-76
2022/10/25 00:24:42;;;;;;;17.40;10.70;;;;;;;12.60;100.00;98590.24;214638;1309;23123;-76
2022/10/25 00:29:44;;;;;;;21.20;11.20;;;;;;;12.53;100.00;98589.02;214601;1295;22504;-75
2022/10/25 00:34:46;;;;;;;16.20;10.00;;;;;;;12.46;100.00;98586.96;214594;1304;22531;-77
2022/10/25 00:39:48;;;;;;;17.20;11.20;;;;;;;12.41;100.00;98583.39;214626;1309;25427;-77
2022/10/25 00:44:56;;;;;;;19.10;11.60;;;;;;;12.37;100.00;98588.03;214520;1309;24416;-76
2022/10/25 00:50:04;;;;;;;18.20;10.10;;;;;;;12.32;100.00;98590.57;214640;1304;22507;-76
2022/10/25 00:55:08;;;;;;;16.00;10.30;;;;;;;12.30;100.00;98592.71;214658;1309;24108;-77
2022/10/25 01:00:11;;;;;;;21.00;10.70;;;;;;;12.26;100.00;98581.09;214725;1301;22471;-79
2022/10/25 01:05:15;;;;;;;17.60;10.60;;;;;;;12.20;100.00;98580.41;214535;1309;22494;-76
2022/10/25 01:10:17;;;;;;;15.10;9.50;;;;;;;12.13;100.00;98573.92;214794;1309;22676;-76
2022/10/25 01:15:27;;;;;;;18.00;10.90;;;;;;;12.08;100.00;98574.25;214877;1309;24382;-77
2022/10/25 01:20:57;;;;;;;16.90;10.10;;;;;;;12.04;100.00;98575.32;214755;1309;22571;-76
2022/10/25 01:26:20;;;;;;;19.60;11.00;;;;;;;12.00;100.00;98573.27;214683;1309;22672;-77
2022/10/25 01:31:40;;;;;;;21.30;12.20;;;;;;;11.94;100.00;98577.61;214719;1295;22466;-76
2022/10/25 01:36:56;;;;;;;18.80;11.40;;;;;;;11.87;100.00;98578.86;214689;1309;22522;-76
2022/10/25 01:42:04;;;;;;;19.10;11.90;;;;;;;11.81;100.00;98575.93;214866;1301;22542;-76
2022/10/25 01:47:17;;;;;;;17.50;11.10;;;;;;;11.74;100.00;98575.44;214664;1309;25398;-77
2022/10/25 01:52:21;;;;;;;19.40;11.80;;;;;;;11.71;100.00;98582.69;214774;1309;24304;-76
2022/10/25 01:57:31;;;;;;;20.50;11.20;;;;;;;11.69;100.00;98573.70;214734;1309;25469;-75
2022/10/25 02:03:08;;;;;;;16.60;10.70;;;;;;;11.66;100.00;98565.53;214584;1309;22607;-74
2022/10/25 02:08:35;;;;;;;18.90;11.40;;;;;;;11.61;100.00;98564.44;214731;1309;125370;-77
2022/10/25 02:13:55;;;;;;;17.70;10.80;;;;;;;11.52;100.00;98570.69;214800;1309;22471;-76
2022/10/25 02:19:01;;;;;;;20.10;11.10;;;;;;;11.45;100.00;98566.64;214696;1309;25437;-76
2022/10/25 02:24:26;;;;;;;19.80;11.10;;;;;;;11.41;100.00;98568.17;214787;1309;22526;-77
2022/10/25 02:29:30;;;;;;;18.00;10.80;;;;;;;11.34;100.00;98567.65;214757;1309;22461;-77
2022/10/25 02:34:33;;;;;;;23.20;12.50;;;;;;;11.27;100.00;98568.92;214827;1302;22588;-75
2022/10/25 02:39:35;;;;;;;17.10;10.90;;;;;;;11.20;100.00;98573.51;214617;1309;22498;-76
2022/10/25 02:44:37;;;;;;;16.10;9.10;;;;;;;11.09;100.00;98575.30;214711;1309;23776;-76
2022/10/25 02:49:38;;;;;;;21.20;11.40;;;;;;;11.02;100.00;98576.23;214556;1309;22604;-76
2022/10/25 02:54:40;;;;;;;21.40;12.50;;;;;;;10.99;100.00;98581.83;214626;1308;22514;-77
2022/10/25 02:59:42;;;;;;;24.80;13.50;;;;;;;10.94;100.00;98583.50;214652;1309;25959;-75
2022/10/25 03:04:44;;;;;;;21.50;11.70;;;;;;;10.88;100.00;98584.84;214671;1309;24125;-76
2022/10/25 03:09:46;;;;;;;22.00;11.70;;;;;;;10.79;100.00;98586.33;214581;1309;22739;-76
2022/10/25 03:14:48;;;;;;;22.50;11.90;;;;;;;10.73;100.00;98583.44;214805;1309;22543;-77
2022/10/25 03:19:50;;;;;;;21.60;12.10;;;;;;;10.73;100.00;98589.65;214507;1309;22486;-75
2022/10/25 03:24:51;;;;;;;23.20;13.40;;;;;;;10.75;100.00;98589.72;214805;1309;22478;-75
2022/10/25 03:29:53;;;;;;;25.70;14.20;;;;;;;10.75;100.00;98589.56;214826;1309;25417;-76
2022/10/25 03:34:55;;;;;;;29.00;15.20;;;;;;;10.77;100.00;98598.14;214730;1309;23768;-76
2022/10/25 03:39:57;;;;;;;32.90;16.20;;;;;;;10.84;100.00;98599.91;214662;1309;24478;-76
2022/10/25 03:44:59;;;;;;;30.60;15.60;;;;;;;10.94;100.00;98599.70;214585;1304;22526;-76
2022/10/25 03:50:01;;;;;;;27.50;14.70;;;;;;;11.02;100.00;98599.50;214445;1309;22946;-76
2022/10/25 03:55:03;;;;;;;35.50;17.90;;;;;;;11.06;100.00;98594.34;214792;1308;25307;-75
2022/10/25 04:00:06;;;;;;;28.50;15.50;;;;;;;11.05;100.00;98595.64;214679;1309;22476;-76
2022/10/25 04:05:14;;;;;;;30.30;15.70;;;;;;;11.03;100.00;98598.23;214842;1309;25286;-76
2022/10/25 04:10:18;;;;;;;28.30;15.00;;;;;;;11.04;100.00;98602.41;214796;1308;23747;-76
2022/10/25 04:15:20;;;;;;;29.20;15.40;;;;;;;11.06;100.00;98603.07;214445;1308;25427;-76
2022/10/25 04:20:22;;;;;;;32.70;17.10;;;;;;;11.08;100.00;98601.05;214575;1309;22588;-76
2022/10/25 04:25:26;;;;;;;26.20;15.60;;;;;;;11.08;100.00;98595.91;214760;1301;22634;-76
2022/10/25 04:30:28;;;;;;;27.60;15.10;;;;;;;11.04;100.00;98592.17;214816;1309;22539;-75
2022/10/25 04:35:30;;;;;;;32.90;16.30;;;;;;;11.01;100.00;98592.77;214760;1309;25341;-76
2022/10/25 04:40:31;;;;;;;29.80;16.70;;;;;;;10.99;100.00;98589.32;214592;1309;23028;-78
2022/10/25 04:45:33;;;;;;;30.10;17.20;;;;;;;10.97;100.00;98590.16;214743;1309;25302;-76
2022/10/25 04:50:37;;;;;;;35.20;19.60;;;;;;;10.96;100.00;98592.42;214664;1309;22501;-76
2022/10/25 04:55:38;;;;;;;36.60;18.70;;;;;;;10.95;100.00;98595.48;214519;1297;22845;-76
2022/10/25 05:00:40;;;;;;;34.50;19.00;;;;;;;10.93;100.00;98591.19;214845;1309;22544;-77
2022/10/25 05:05:42;;;;;;;28.80;17.10;;;;;;;10.92;100.00;98596.67;214570;1304;22510;-76
2022/10/25 05:10:52;;;;;;;30.90;16.10;;;;;;;10.87;100.00;98604.22;214781;1304;23067;-76
2022/10/25 05:15:55;;;;;;;24.10;13.30;;;;;;;10.83;100.00;98607.33;214656;1309;25770;-75
2022/10/25 05:21:00;;;;;;;32.40;15.40;;;;;;;10.78;100.00;98607.25;214780;1309;22616;-76
2022/10/25 05:26:09;;;;;;;27.50;15.00;;;;;;;10.75;100.00;98607.57;214806;1309;22498;-76
2022/10/25 05:31:14;;;;;;;31.10;16.30;;;;;;;10.72;100.00;98615.06;214811;1309;25296;-76
2022/10/25 05:36:17;;;;;;;31.60;16.80;;;;;;;10.74;100.00;98624.14;214778;1309;22576;-77
2022/10/25 05:41:20;;;;;;;26.80;16.30;;;;;;;10.77;100.00;98625.92;214772;1308;22470;-76
2022/10/25 05:46:22;;;;;;;27.70;15.40;;;;;;;10.83;100.00;98634.18;214808;1309;22509;-75
2022/10/25 05:51:27;;;;;;;27.70;15.20;;;;;;;10.91;100.00;98631.31;214904;1285;22523;-76
2022/10/25 05:56:37;;;;;;;28.20;14.90;;;;;;;11.04;100.00;98630.45;215342;1277;24107;-74
2022/10/25 06:01:44;;;;;;;25.50;14.90;;;;;;;11.16;100.00;98630.74;215455;1281;22563;-74
2022/10/25 06:06:46;;;;;;;34.50;20.60;;;;;;;11.27;100.00;98633.86;215811;1277;22487;-74
2022/10/25 06:11:48;;;;;;;24.30;13.90;;;;;;;11.39;100.00;98648.89;215452;1277;22475;-74
2022/10/25 06:16:50;;;;;;;24.20;14.40;;;;;;;11.50;100.00;98651.05;215574;1285;25379;-75
2022/10/25 06:21:53;;;;;;;29.20;15.70;;;;;;;11.57;100.00;98661.52;215448;1277;22583;-73
2022/10/25 06:26:55;;;;;;;25.50;15.20;;;;;;;11.62;100.00;98671.73;215396;1278;22469;-74
2022/10/25 06:31:57;;;;;;;25.10;15.70;;;;;;;11.70;100.00;98678.89;215283;1277;25403;-73
2022/10/25 06:36:59;;;;;;;20.80;13.10;;;;;;;11.82;100.00;98689.11;215410;1279;25452;-74
2022/10/25 06:42:01;;;;;;;22.00;13.00;;;;;;;11.94;100.00;98695.52;215391;1278;22511;-75
2022/10/25 06:47:03;;;;;;;21.00;13.00;;;;;;;12.02;100.00;98699.60;215374;1281;25350;-73
2022/10/25 06:52:18;;;;;;;21.40;12.40;;;;;;;12.13;100.00;98695.03;215305;1284;25277;-74
2022/10/25 06:57:20;;;;;;;20.00;11.90;;;;;;;12.25;100.00;98696.73;215319;1277;24443;-74
2022/10/25 07:02:22;;;;;;;24.60;12.40;;;;;;;12.34;100.00;98706.52;215105;1280;22687;-73
2022/10/25 07:07:24;;;;;;;22.40;12.90;;;;;;;12.38;100.00;98712.02;215074;1278;22577;-73
2022/10/25 07:12:26;;;;;;;21.60;13.90;;;;;;;12.43;100.00;98709.55;215429;1282;24363;-73
2022/10/25 07:17:28;;;;;;;21.70;12.90;;;;;;;12.52;100.00;98708.02;215219;1278;22474;-73
2022/10/25 07:22:29;;;;;;;23.20;12.90;;;;;;;12.56;100.00;98705.55;215059;1278;24259;-73
2022/10/25 07:27:32;;;;;;;18.30;12.10;;;;;;;12.60;100.00;98707.95;215517;1277;22521;-72
2022/10/25 07:32:34;;;;;;;16.60;11.00;;;;;;;12.60;100.00;98716.02;215645;1277;22479;-72
2022/10/25 07:37:42;;;;;;;23.70;12.60;;;;;;;12.55;100.00;98737.28;215278;1281;22533;-73
2022/10/25 07:42:44;;;;;;;21.60;11.20;;;;;;;12.49;100.00;98757.84;215344;1285;22980;-75
2022/10/25 07:47:49;;;;;;;16.70;10.60;;;;;;;12.39;100.00;98754.02;215155;1283;22603;-75
2022/10/25 07:52:51;;;;;;;17.60;9.90;;;;;;;12.28;100.00;98747.48;215246;1285;22501;-75
2022/10/25 07:58:02;;;;;;;17.70;9.30;;;;;;;12.23;100.00;98746.23;215347;1290;22501;-75
2022/10/25 08:03:04;;;;;;;11.70;8.20;;;;;;;12.21;100.00;98749.23;215211;1285;22633;-74
2022/10/25 08:08:06;;;;;;;13.10;8.50;;;;;;;12.20;100.00;98748.92;215186;1284;24024;-74
2022/10/25 08:13:08;;;;;;;11.40;7.80;;;;;;;12.25;100.00;98755.48;215391;1287;25413;-74
2022/10/25 08:18:10;;;;;;;16.30;9.40;;;;;;;12.39;100.00;98756.00;215199;1285;22696;-75
2022/10/25 08:23:11;;;;;;;14.60;9.00;;;;;;;12.59;100.00;98745.41;215273;1285;22530;-74
2022/10/25 08:28:14;;;;;;;16.20;10.10;;;;;;;12.79;100.00;98741.16;215597;1309;22587;-75
2022/10/25 08:33:16;;;;;;;18.20;11.20;;;;;;;12.94;100.00;98742.84;215552;1285;25308;-74
2022/10/25 08:38:17;;;;;;;16.30;11.00;;;;;;;13.01;100.00;98741.68;215549;1285;22482;-74
2022/10/25 08:43:40;;;;;;;16.60;11.00;;;;;;;13.13;100.00;98749.42;215315;1278;25201;-74
2022/10/25 08:48:47;;;;;;;18.50;10.90;;;;;;;13.26;100.00;98741.09;215276;1284;22537;-74
2022/10/25 08:53:53;;;;;;;16.70;10.80;;;;;;;13.39;100.00;98740.53;215195;1280;22565;-73
2022/10/25 08:59:01;;;;;;;21.00;13.50;;;;;;;13.51;100.00;98741.75;215121;1280;25401;-74
2022/10/25 09:04:03;;;;;;;16.50;10.00;;;;;;;13.59;100.00;98734.11;215252;1282;23784;-73
2022/10/25 09:09:27;;;;;;;14.80;9.80;;;;;;;13.62;100.00;98730.98;215425;1277;26415;-73
2022/10/25 09:14:29;;;;;;;14.30;9.20;;;;;;;13.58;100.00;98727.34;215262;1284;22474;-74
2022/10/25 09:19:34;;;;;;;13.10;8.70;;;;;;;13.51;100.00;98732.38;215371;1278;22546;-73
2022/10/25 09:24:52;;;;;;;12.40;9.00;;;;;;;13.58;100.00;98735.65;215181;1277;22481;-72
2022/10/25 09:30:06;;;;;;;14.20;9.40;;;;;;;13.76;100.00;98736.83;215250;1277;22571;-73
2022/10/25 09:35:21;;;;;;;14.30;8.50;;;;;;;13.94;100.00;98738.61;215272;1283;22474;-73
2022/10/25 09:40:32;;;;;;;15.50;8.70;;;;;;;14.12;100.00;98748.21;215268;1278;22621;-73
2022/10/25 09:45:48;;;;;;;11.70;8.40;;;;;;;14.25;100.00;98756.29;215217;1277;24286;-73
2022/10/25 09:50:56;;;;;;;9.60;6.60;;;;;;;14.37;100.00;98751.42;215235;1278;22499;-73
2022/10/25 09:56:00;;;;;;;8.00;5.20;;;;;;;14.51;100.00;98759.15;215217;1277;25357;-72
2022/10/25 10:01:16;;;;;;;7.70;5.10;;;;;;;14.59;100.00;98766.59;215048;1283;22482;-72
2022/10/25 10:06:39;;;;;;;7.00;4.70;;;;;;;14.77;100.00;98764.51;215038;1277;22464;-72
2022/10/25 10:11:43;;;;;;;6.20;4.80;;;;;;;14.96;100.00;98763.30;215519;1285;22560;-71
2022/10/25 10:16:48;;;;;;;7.50;4.70;;;;;;;14.93;100.00;98762.52;215079;1285;24434;-72
2022/10/25 10:21:55;;;;;;;9.10;5.10;;;;;;;14.88;100.00;98767.77;215117;1309;25345;-73
2022/10/25 10:26:59;;;;;;;8.20;5.60;;;;;;;14.93;100.00;98764.34;215191;1284;22605;-73
2022/10/25 10:32:21;;;;;;;8.30;6.20;;;;;;;15.03;100.00;98755.75;215275;1277;22553;-73
2022/10/25 10:37:25;;;;;;;7.00;4.90;;;;;;;15.18;100.00;98747.18;215381;1277;23450;-73
2022/10/25 10:42:31;;;;;;;6.70;5.20;;;;;;;15.28;100.00;98752.69;215285;1278;24443;-73
2022/10/25 10:47:50;;;;;;;11.50;7.10;;;;;;;15.30;100.00;98746.46;215464;1278;23654;-73
2022/10/25 10:52:51;;;;;;;6.80;4.70;;;;;;;15.41;100.00;98750.16;215379;1284;22525;-75
2022/10/25 10:58:05;;;;;;;6.30;4.20;;;;;;;15.63;100.00;98747.50;215323;1277;22601;-75
2022/10/25 11:03:39;;;;;;;8.40;5.70;;;;;;;15.81;100.00;98751.46;215300;1277;22469;-75
2022/10/25 11:09:22;;;;;;;7.80;5.10;;;;;;;15.99;100.00;98754.16;215401;1277;24076;-75
2022/10/25 11:14:24;;;;;;;8.60;5.00;;;;;;;16.14;100.00;98750.69;215208;1285;22479;-74
2022/10/25 11:19:54;;;;;;;4.80;4.20;;;;;;;16.30;100.00;98746.89;215218;1277;22473;-75
2022/10/25 11:25:12;;;;;;;6.90;4.70;;;;;;;16.42;100.00;98739.20;215254;1284;24632;-74
2022/10/25 11:30:18;;;;;;;6.70;3.70;;;;;;;16.58;100.00;98740.61;215292;1277;22537;-76
2022/10/25 11:35:39;;;;;;;5.60;3.70;;;;;;;16.71;100.00;98740.02;215307;1288;22582;-74
2022/10/25 11:41:19;;;;;;;4.90;3.20;;;;;;;16.93;99.95;98746.02;215292;1277;22528;-75
2022/10/25 11:46:42;;;;;;;7.70;3.70;;;;;;;17.14;97.99;98747.63;215231;1281;26337;-75
2022/10/25 11:52:14;;;;;;;6.10;2.90;;;;;;;17.11;97.29;98750.69;215294;1285;25333;-76
2022/10/25 11:57:47;;;;;;;3.00;1.90;;;;;;;17.04;97.11;98746.19;215331;1285;22525;-75
2022/10/25 12:02:55;;;;;;;4.00;2.80;;;;;;;16.95;96.76;98741.98;215252;1309;23283;-75
2022/10/25 12:08:13;;;;;;;5.30;2.10;;;;;;;16.79;96.39;98746.73;215011;1312;25200;-74
2022/10/25 12:13:25;;;;;;;4.00;2.50;;;;;;;16.62;96.02;98754.29;215303;1284;22498;-72
2022/10/25 12:18:35;;;;;;;4.20;2.70;;;;;;;16.52;95.82;98760.40;215253;1277;23261;-73
2022/10/25 12:23:45;;;;;;;3.00;2.70;;;;;;;16.38;95.60;98750.44;215355;1285;25484;-72
2022/10/25 12:28:49;;;;;;;3.70;2.90;;;;;;;16.31;95.98;98744.09;215157;1285;22648;-73
2022/10/25 12:34:15;;;;;;;5.60;3.30;;;;;;;16.27;96.05;98748.71;215010;1280;23900;-73
2022/10/25 12:39:37;;;;;;;3.60;2.70;;;;;;;16.13;95.72;98754.64;215277;1295;22498;-72
2022/10/25 12:45:01;;;;;;;4.50;3.10;;;;;;;15.95;95.67;98752.09;215167;1277;22498;-73
2022/10/25 12:50:21;;;;;;;6.90;4.00;;;;;;;15.78;95.99;98754.27;215244;1284;22557;-72
2022/10/25 12:55:33;;;;;;;3.70;3.20;;;;;;;15.70;96.26;98749.07;215268;1284;22658;-74
2022/10/25 13:00:45;;;;;;;3.20;2.90;;;;;;;15.67;96.47;98744.38;215548;1277;22503;-73
2022/10/25 13:06:08;;;;;;;4.10;3.10;;;;;;;15.57;96.19;98746.65;215164;1278;22464;-73
2022/10/25 13:11:11;;;;;;;9.90;4.80;;;;;;;15.41;96.36;98750.54;215352;1278;22557;-73
2022/10/25 13:16:25;;;;;;;4.30;3.10;;;;;;;15.38;96.47;98754.64;215240;1278;22678;-73
2022/10/25 13:21:52;;;;;;;3.00;2.40;;;;;;;15.50;96.00;98762.10;215241;1284;22912;-73
2022/10/25 13:27:12;;;;;;;5.80;2.40;;;;;;;15.68;95.84;98761.84;215215;1284;22754;-74
2022/10/25 13:32:20;;;;;;;3.30;2.30;;;;;;;15.81;95.07;98762.77;215302;1285;22517;-73
2022/10/25 13:37:31;;;;;;;3.90;2.30;;;;;;;15.89;94.63;98765.90;215186;1285;23596;-74
2022/10/25 13:42:37;;;;;;;4.10;3.10;;;;;;;16.03;94.07;98767.05;215455;1278;25228;-74
2022/10/25 13:47:48;;;;;;;3.10;2.10;;;;;;;16.15;93.47;98764.92;215267;1277;22479;-74
2022/10/25 13:53:02;;;;;;;4.30;2.50;;;;;;;16.21;92.69;98768.40;215422;1287;24256;-72
2022/10/25 13:58:29;;;;;;;1.90;1.80;;;;;;;16.34;92.68;98772.59;215125;1277;23219;-74
2022/10/25 14:03:50;;;;;;;2.60;1.70;;;;;;;16.45;92.29;98775.49;214992;1285;23944;-74
2022/10/25 14:09:07;;;;;;;3.60;2.10;;;;;;;16.49;91.87;98784.95;214623;1309;147401;-73
2022/10/25 14:14:18;;;;;;;4.20;2.30;;;;;;;16.38;91.14;98783.63;214756;1309;25294;-75
2022/10/25 14:19:32;;;;;;;3.60;2.30;;;;;;;16.18;91.01;98783.01;214740;1309;22595;-74
2022/10/25 14:24:41;;;;;;;4.10;2.20;;;;;;;15.99;91.07;98786.81;214709;1308;23230;-74
2022/10/25 14:29:42;;;;;;;4.10;2.70;;;;;;;15.81;91.37;98788.04;214814;1309;25351;-74
2022/10/25 14:34:49;;;;;;;5.10;3.40;;;;;;;15.67;91.91;98793.20;214782;1309;22612;-73
2022/10/25 14:39:52;;;;;;;8.30;5.10;;;;;;;15.51;92.28;98798.52;214659;1309;22637;-74
2022/10/25 14:44:54;;;;;;;6.40;5.10;;;;;;;15.29;92.49;98800.40;214756;1309;22511;-74
2022/10/25 14:49:58;;;;;;;9.40;5.80;;;;;;;15.08;92.83;98807.16;214719;1309;25467;-74
2022/10/25 14:55:03;;;;;;;7.80;4.30;;;;;;;14.92;93.35;98806.15;214771;1309;24347;-73
2022/10/25 15:00:05;;;;;;;6.60;3.70;;;;;;;14.78;93.55;98805.69;214758;1309;22612;-74
2022/10/25 15:05:17;;;;;;;4.60;3.40;;;;;;;14.69;93.39;98808.12;214723;1309;22583;-72
2022/10/25 15:10:34;;;;;;;7.20;3.50;;;;;;;14.64;93.32;98812.67;214663;1309;24285;-72
2022/10/25 15:15:43;;;;;;;3.60;3.30;;;;;;;14.60;93.09;98810.57;214734;1309;24233;-73
2022/10/25 15:20:48;;;;;;;4.70;3.70;;;;;;;14.52;92.86;98815.95;214552;1307;22617;-75
2022/10/25 15:25:50;;;;;;;6.50;3.70;;;;;;;14.44;92.60;98817.38;214932;1309;22509;-74
2022/10/25 15:30:53;;;;;;;6.20;4.40;;;;;;;14.35;92.23;98816.85;214661;1309;22463;-74
2022/10/25 15:36:04;;;;;;;5.30;3.70;;;;;;;14.28;91.87;98819.80;214717;1309;24338;-73
2022/10/25 15:41:07;;;;;;;5.20;3.40;;;;;;;14.18;91.56;98824.42;214713;1309;24522;-73
2022/10/25 15:46:32;;;;;;;5.90;3.60;;;;;;;14.06;91.47;98827.29;214708;1309;23743;-74
2022/10/25 15:51:37;;;;;;;8.00;4.50;;;;;;;13.95;91.48;98829.27;214686;1309;24288;-74
2022/10/25 15:56:39;;;;;;;4.90;3.40;;;;;;;13.83;91.47;98834.39;214659;1309;24315;-73
2022/10/25 16:01:44;;;;;;;5.10;4.50;;;;;;;13.68;91.30;98839.12;214701;1305;22625;-74
2022/10/25 16:06:47;;;;;;;6.00;3.60;;;;;;;13.48;91.07;98842.39;214745;1309;22841;-73
2022/10/25 16:11:53;;;;;;;3.90;3.50;;;;;;;13.29;91.41;98835.39;214653;1309;22487;-73
2022/10/25 16:16:55;;;;;;;3.80;3.30;;;;;;;13.15;92.02;98843.50;214694;1309;22481;-75
2022/10/25 16:21:59;;;;;;;6.30;3.90;;;;;;;13.01;92.42;98843.38;214543;1310;24333;-74
2022/10/25 16:27:01;;;;;;;7.00;4.20;;;;;;;12.87;92.72;98845.35;214452;1309;22738;-73
2022/10/25 16:32:04;;;;;;;5.90;3.90;;;;;;;12.73;92.97;98847.73;214861;1310;22491;-73
2022/10/25 16:37:06;;;;;;;6.70;4.50;;;;;;;12.61;93.26;98859.59;214758;1310;24253;-74
2022/10/25 16:42:26;;;;;;;6.90;4.50;;;;;;;12.50;93.43;98867.53;214776;1311;26499;-74
2022/10/25 16:47:28;;;;;;;7.10;5.00;;;;;;;12.42;93.77;98870.75;214758;1301;22969;-74
2022/10/25 16:52:30;;;;;;;7.80;4.90;;;;;;;12.35;93.97;98867.83;214744;1309;22482;-73
2022/10/25 16:57:31;;;;;;;9.30;5.30;;;;;;;12.26;94.23;98872.07;214723;1309;22553;-73
2022/10/25 17:02:33;;;;;;;16.20;9.10;;;;;;;12.13;94.31;98873.42;214763;1309;23907;-73
2022/10/25 17:07:35;;;;;;;17.70;10.60;;;;;;;12.02;94.40;98880.50;214703;1309;25343;-73
2022/10/25 17:12:48;;;;;;;16.90;11.10;;;;;;;11.91;94.75;98887.75;214685;1309;25332;-73
2022/10/25 17:17:51;;;;;;;18.10;11.30;;;;;;;11.80;95.14;98895.27;214816;1309;22480;-74
2022/10/25 17:22:53;;;;;;;38.70;20.10;;;;;;;11.73;95.52;98897.47;214571;1309;22521;-73
2022/10/25 17:27:55;;;;;;;23.80;14.70;;;;;;;11.68;95.77;98895.63;214627;1309;22489;-74
2022/10/25 17:32:57;;;;;;;19.90;11.90;;;;;;;11.61;95.80;98905.44;214596;1310;22611;-72
2022/10/25 17:37:58;;;;;;;17.80;10.70;;;;;;;11.58;96.24;98915.85;214725;1309;22589;-72
2022/10/25 17:43:00;;;;;;;17.20;11.10;;;;;;;11.60;96.60;98912.07;214732;1310;24403;-73
2022/10/25 17:48:03;;;;;;;19.60;13.00;;;;;;;11.65;97.28;98913.70;214601;1310;22472;-73
2022/10/25 17:53:05;;;;;;;19.30;12.40;;;;;;;11.69;97.17;98909.45;214753;1310;24277;-74
2022/10/25 17:58:06;;;;;;;19.10;13.00;;;;;;;11.72;97.49;98913.98;214745;1310;23815;-74
2022/10/25 18:03:08;;;;;;;27.70;15.70;;;;;;;11.78;97.70;98921.27;214842;1311;26492;-73
2022/10/25 18:08:10;;;;;;;23.90;15.40;;;;;;;11.83;98.06;98918.31;214729;1310;22471;-73
2022/10/25 18:13:12;;;;;;;22.00;14.90;;;;;;;11.86;98.01;98921.91;214729;1310;24254;-74
2022/10/25 18:18:17;;;;;;;27.00;17.50;;;;;;;11.85;97.80;98925.60;214749;1309;22478;-74
2022/10/25 18:23:19;;;;;;;22.40;15.00;;;;;;;11.85;97.88;98933.58;214791;1308;22479;-73
2022/10/25 18:28:21;;;;;;;23.50;14.90;;;;;;;11.86;97.97;98933.72;214559;1309;22491;-74
2022/10/25 18:33:24;;;;;;;21.40;14.00;;;;;;;11.88;98.06;98935.04;214781;1309;22481;-73
2022/10/25 18:38:26;;;;;;;20.50;13.80;;;;;;;11.90;98.18;98936.84;214750;1309;22495;-74
2022/10/25 18:43:28;;;;;;;22.30;14.70;;;;;;;11.91;98.05;98933.48;214684;1309;23456;-73
2022/10/25 18:48:30;;;;;;;27.30;16.10;;;;;;;11.89;97.91;98931.38;214753;1309;22499;-73
2022/10/25 18:53:34;;;;;;;25.50;15.90;;;;;;;11.88;97.74;98929.83;214427;1306;22746;-73
2022/10/25 18:58:36;;;;;;;23.00;15.20;;;;;;;11.86;97.77;98928.35;214868;1309;23016;-73
2022/10/25 19:03:39;;;;;;;27.90;15.80;;;;;;;11.83;97.69;98936.23;214844;1309;22457;-74
2022/10/25 19:08:42;;;;;;;21.90;15.80;;;;;;;11.77;97.69;98937.13;214782;1310;25214;-74
2022/10/25 19:13:44;;;;;;;20.80;14.70;;;;;;;11.72;97.92;98942.25;214766;1309;25440;-74
2022/10/25 19:18:52;;;;;;;26.00;15.50;;;;;;;11.69;98.08;98942.40;214637;1309;25273;-73
2022/10/25 19:23:54;;;;;;;17.60;12.20;;;;;;;11.67;98.21;98938.64;214728;1309;22469;-73
2022/10/25 19:28:58;;;;;;;21.60;13.30;;;;;;;11.58;97.92;98935.05;214683;1309;22473;-73
2022/10/25 19:34:02;;;;;;;27.70;13.30;;;;;;;11.47;97.96;98932.27;214846;1309;25391;-74
2022/10/25 19:39:04;;;;;;;24.10;15.00;;;;;;;11.35;98.16;98933.66;214869;1309;22521;-74
2022/10/25 19:44:06;;;;;;;20.30;14.90;;;;;;;11.23;98.38;98935.01;214596;1309;22472;-74
2022/10/25 19:49:09;;;;;;;29.50;18.40;;;;;;;11.13;98.71;98940.33;214710;1309;24122;-73
2022/10/25 19:54:11;;;;;;;28.70;19.10;;;;;;;11.07;98.94;98948.71;214468;1309;22513;-74
2022/10/25 19:59:13;;;;;;;30.80;19.60;;;;;;;11.05;99.29;98957.00;214568;1309;25440;-74
2022/10/25 20:04:15;;;;;;;29.90;18.80;;;;;;;11.02;99.36;98950.33;214740;1309;22496;-74
2022/10/25 20:09:17;;;;;;;28.90;18.90;;;;;;;10.98;99.45;98956.81;214715;1309;22491;-74
2022/10/25 20:14:19;;;;;;;32.50;20.00;;;;;;;10.96;99.68;98960.97;214520;1309;22939;-75
2022/10/25 20:19:21;;;;;;;36.80;19.40;;;;;;;10.98;99.90;98963.94;214696;1309;24598;-74
2022/10/25 20:24:23;;;;;;;27.10;16.70;;;;;;;11.02;100.00;98965.88;214694;1309;22481;-74
2022/10/25 20:29:25;;;;;;;24.20;15.80;;;;;;;11.06;100.00;98969.53;214616;1309;25226;-73
2022/10/25 20:34:27;;;;;;;28.10;17.70;;;;;;;11.09;100.00;98972.14;214850;1309;23291;-72
2022/10/25 20:39:29;;;;;;;29.50;18.10;;;;;;;11.10;100.00;98973.60;214536;1309;22482;-73
2022/10/25 20:44:31;;;;;;;29.30;17.10;;;;;;;11.11;100.00;98972.16;214557;1309;23336;-74
2022/10/25 20:49:33;;;;;;;24.00;15.20;;;;;;;11.10;100.00;98968.47;214660;1309;23315;-73
2022/10/25 20:54:35;;;;;;;20.60;12.70;;;;;;;11.12;100.00;98974.61;214648;1309;22609;-72
2022/10/25 20:59:36;;;;;;;18.50;12.80;;;;;;;11.16;100.00;98976.66;214756;1309;22516;-74
2022/10/25 21:04:38;;;;;;;24.60;13.50;;;;;;;11.18;100.00;98977.74;214676;1309;22714;-74
2022/10/25 21:09:54;;;;;;;27.20;15.00;;;;;;;11.17;100.00;98976.64;214625;1301;22493;-73
2022/10/25 21:15:03;;;;;;;26.30;16.30;;;;;;;11.13;100.00;98976.95;214546;1304;22476;-74
2022/10/25 21:20:10;;;;;;;29.90;15.50;;;;;;;11.13;100.00;98971.05;214800;1295;22508;-73
2022/10/25 21:25:13;;;;;;;22.80;15.50;;;;;;;11.11;100.00;98965.61;214736;1309;25365;-74
2022/10/25 21:30:14;;;;;;;21.60;13.50;;;;;;;11.07;100.00;98965.49;214671;1309;24497;-73
2022/10/25 21:35:17;;;;;;;23.00;14.00;;;;;;;11.00;100.00;98967.18;214523;1309;25378;-72
2022/10/25 21:40:18;;;;;;;27.90;15.90;;;;;;;10.92;100.00;98970.50;214752;1309;22571;-74
2022/10/25 21:45:20;;;;;;;24.80;15.20;;;;;;;10.84;100.00;98968.86;214756;1309;22533;-74
2022/10/25 21:50:22;;;;;;;24.80;14.90;;;;;;;10.81;100.00;98968.52;214600;1295;22598;-73
2022/10/25 21:55:24;;;;;;;28.80;15.60;;;;;;;10.81;100.00;98968.10;214810;1309;26436;-74
2022/10/25 22:00:26;;;;;;;21.70;14.10;;;;;;;10.81;100.00;98972.08;214569;1309;22498;-73
2022/10/25 22:05:28;;;;;;;26.00;13.30;;;;;;;10.82;100.00;98971.70;214722;1304;22482;-73
2022/10/25 22:10:29;;;;;;;24.40;15.50;;;;;;;10.80;100.00;98960.50;214644;1309;25406;-73
2022/10/25 22:15:31;;;;;;;25.80;15.90;;;;;;;10.78;100.00;98964.21;214635;1295;22484;-73
2022/10/25 22:20:33;;;;;;;23.60;14.50;;;;;;;10.75;100.00;98963.17;214578;1309;25369;-74
2022/10/25 22:25:35;;;;;;;25.60;14.60;;;;;;;10.71;100.00;98971.36;214745;1309;23748;-73
2022/10/25 22:30:36;;;;;;;25.30;14.10;;;;;;;10.66;100.00;98974.20;214873;1309;22597;-72
2022/10/25 22:35:38;;;;;;;23.00;14.50;;;;;;;10.56;100.00;98972.74;214800;1309;25091;-73
2022/10/25 22:40:40;;;;;;;25.20;13.90;;;;;;;10.42;100.00;98970.52;214703;1309;26157;-72
2022/10/25 22:45:42;;;;;;;26.80;15.10;;;;;;;10.26;100.00;98973.63;214708;1309;22525;-74
2022/10/25 22:50:52;;;;;;;26.60;16.30;;;;;;;10.09;100.00;98985.77;214563;1309;25382;-73
2022/10/25 22:56:00;;;;;;;23.10;14.60;;;;;;;10.00;100.00;98985.77;214537;1309;25265;-73
2022/10/25 23:01:04;;;;;;;21.20;13.10;;;;;;;9.96;100.00;98990.69;214616;1309;24343;-73
2022/10/25 23:06:15;;;;;;;24.80;14.10;;;;;;;9.91;100.00;98992.63;214691;1309;23748;-73
2022/10/25 23:11:20;;;;;;;21.90;13.90;;;;;;;9.85;100.00;98990.59;214727;1309;25338;-72
2022/10/25 23:16:27;;;;;;;23.80;13.80;;;;;;;9.77;100.00;98997.34;214820;1304;24300;-73